sensor_id;sensor_type;location;lat;lon;timestamp;pressure;altitude;pressure_sealevel;temperature;humidity
49030;BME280;43337;52.070;4.508;2024-01-25T00:00:18;102987.63;;;6.90;100.00
49030;BME280;43337;52.070;4.508;2024-01-25T00:02:43;102988.47;;;6.85;100.00
49030;BME280;43337;52.070;4.508;2024-01-25T00:05:09;102983.25;;;6.89;100.00
49030;BME280;43337;52.070;4.508;2024-01-25T00:07:34;102978.84;;;6.88;100.00
49030;BME280;43337;52.070;4.508;2024-01-25T00:09:59;102988.47;;;6.89;100.00
49030;BME280;43337;52.070;4.508;2024-01-25T00:12:25;102970.97;;;6.81;100.00
49030;BME280;43337;52.070;4.508;2024-01-25T00:14:52;102983.25;;;6.89;100.00
49030;BME280;43337;52.070;4.508;2024-01-25T00:17:18;102974.50;;;6.87;100.00
49030;BME280;43337;52.070;4.508;2024-01-25T00:19:43;102943.84;;;6.70;100.00
49030;BME280;43337;52.070;4.508;2024-01-25T00:22:09;102950.84;;;6.76;100.00
49030;BME280;43337;52.070;4.508;2024-01-25T00:24:34;102973.59;;;6.81;100.00
49030;BME280;43337;52.070;4.508;2024-01-25T00:27:01;102965.66;;;6.72;100.00
49030;BME280;43337;52.070;4.508;2024-01-25T00:29:28;102973.56;;;6.78;100.00
49030;BME280;43337;52.070;4.508;2024-01-25T00:31:56;102964.78;;;6.72;100.00
49030;BME280;43337;52.070;4.508;2024-01-25T00:34:23;102960.38;;;6.66;100.00
49030;BME280;43337;52.070;4.508;2024-01-25T00:36:50;102978.75;;;6.75;100.00
49030;BME280;43337;52.070;4.508;2024-01-25T00:39:15;102989.25;;;6.75;100.00
49030;BME280;43337;52.070;4.508;2024-01-25T00:41:41;102979.59;;;6.71;100.00
49030;BME280;43337;52.070;4.508;2024-01-25T00:44:09;102976.09;;;6.68;100.00
49030;BME280;43337;52.070;4.508;2024-01-25T00:46:35;102979.59;;;6.70;100.00
49030;BME280;43337;52.070;4.508;2024-01-25T00:49:01;102969.97;;;6.67;100.00
49030;BME280;43337;52.070;4.508;2024-01-25T00:51:27;102944.59;;;6.54;100.00
49030;BME280;43337;52.070;4.508;2024-01-25T00:53:53;102952.47;;;6.58;100.00
49030;BME280;43337;52.070;4.508;2024-01-25T00:56:18;102960.28;;;6.57;100.00
49030;BME280;43337;52.070;4.508;2024-01-25T00:58:44;102969.03;;;6.57;100.00
49030;BME280;43337;52.070;4.508;2024-01-25T01:01:12;102959.34;;;6.47;100.00
49030;BME280;43337;52.070;4.508;2024-01-25T01:03:37;102957.59;;;6.49;100.00
49030;BME280;43337;52.070;4.508;2024-01-25T01:06:03;102982.09;;;6.54;100.00
49030;BME280;43337;52.070;4.508;2024-01-25T01:08:28;102955.75;;;6.38;100.00
49030;BME280;43337;52.070;4.508;2024-01-25T01:10:57;102960.97;;;6.33;100.00
49030;BME280;43337;52.070;4.508;2024-01-25T01:13:22;102971.47;;;6.36;100.00
49030;BME280;43337;52.070;4.508;2024-01-25T01:15:49;102937.22;;;6.11;100.00
49030;BME280;43337;52.070;4.508;2024-01-25T01:18:15;103011.69;;;6.46;100.00
49030;BME280;43337;52.070;4.508;2024-01-25T01:20:41;102953.75;;;6.07;100.00
49030;BME280;43337;52.070;4.508;2024-01-25T01:23:06;102959.84;;;6.08;100.00
49030;BME280;43337;52.070;4.508;2024-01-25T01:25:33;103008.13;;;6.41;100.00
49030;BME280;43337;52.070;4.508;2024-01-25T01:27:58;103022.94;;;6.39;100.00
49030;BME280;43337;52.070;4.508;2024-01-25T01:30:27;103029.00;;;6.36;100.00
49030;BME280;43337;52.070;4.508;2024-01-25T01:32:52;102993.94;;;6.17;100.00
49030;BME280;43337;52.070;4.508;2024-01-25T01:35:18;103013.25;;;6.28;100.00
49030;BME280;43337;52.070;4.508;2024-01-25T01:37:43;102999.09;;;6.08;100.00
49030;BME280;43337;52.070;4.508;2024-01-25T01:40:09;103019.09;;;6.06;100.00
49030;BME280;43337;52.070;4.508;2024-01-25T01:42:35;103059.38;;;6.22;100.00
49030;BME280;43337;52.070;4.508;2024-01-25T01:45:00;103061.09;;;6.20;100.00
49030;BME280;43337;52.070;4.508;2024-01-25T01:47:26;103038.31;;;6.09;100.00
49030;BME280;43337;52.070;4.508;2024-01-25T01:49:51;103019.88;;;5.97;100.00
49030;BME280;43337;52.070;4.508;2024-01-25T01:52:17;103058.41;;;6.14;100.00
49030;BME280;43337;52.070;4.508;2024-01-25T01:54:43;103055.75;;;6.10;100.00
49030;BME280;43337;52.070;4.508;2024-01-25T01:57:08;103040.84;;;6.00;100.00
49030;BME280;43337;52.070;4.508;2024-01-25T01:59:34;103039.00;;;5.93;100.00
49030;BME280;43337;52.070;4.508;2024-01-25T02:01:59;103053.00;;;5.97;100.00
49030;BME280;43337;52.070;4.508;2024-01-25T02:04:25;103066.91;;;5.96;100.00
49030;BME280;43337;52.070;4.508;2024-01-25T02:06:51;103040.50;;;5.77;100.00
49030;BME280;43337;52.070;4.508;2024-01-25T02:09:16;103045.88;;;5.90;100.00
49030;BME280;43337;52.070;4.508;2024-01-25T02:11:42;103043.22;;;5.85;100.00
49030;BME280;43337;52.070;4.508;2024-01-25T02:14:07;103005.44;;;5.60;100.00
49030;BME280;43337;52.070;4.508;2024-01-25T02:16:36;103038.81;;;5.81;100.00
49030;BME280;43337;52.070;4.508;2024-01-25T02:19:02;103040.47;;;5.73;100.00
49030;BME280;43337;52.070;4.508;2024-01-25T02:21:27;103042.19;;;5.74;100.00
49030;BME280;43337;52.070;4.508;2024-01-25T02:23:53;103044.66;;;5.63;100.00
49030;BME280;43337;52.070;4.508;2024-01-25T02:26:18;103017.47;;;5.49;100.00
49030;BME280;43337;52.070;4.508;2024-01-25T02:28:43;103037.66;;;5.59;100.00
49030;BME280;43337;52.070;4.508;2024-01-25T02:31:13;103033.19;;;5.53;100.00
49030;BME280;43337;52.070;4.508;2024-01-25T02:33:39;103055.06;;;5.60;100.00
49030;BME280;43337;52.070;4.508;2024-01-25T02:36:04;103044.50;;;5.51;100.00
49030;BME280;43337;52.070;4.508;2024-01-25T02:38:30;103046.25;;;5.50;100.00
49030;BME280;43337;52.070;4.508;2024-01-25T02:40:56;103012.78;;;5.26;100.00
49030;BME280;43337;52.070;4.508;2024-01-25T02:43:21;103058.38;;;5.47;100.00
49030;BME280;43337;52.070;4.508;2024-01-25T02:45:48;103061.81;;;5.46;100.00
49030;BME280;43337;52.070;4.508;2024-01-25T02:48:14;103047.75;;;5.34;100.00
49030;BME280;43337;52.070;4.508;2024-01-25T02:50:40;103060.03;;;5.40;100.00
49030;BME280;43337;52.070;4.508;2024-01-25T02:53:05;103031.00;;;5.22;100.00
49030;BME280;43337;52.070;4.508;2024-01-25T02:55:31;103071.34;;;5.39;100.00
49030;BME280;43337;52.070;4.508;2024-01-25T02:57:57;103068.69;;;5.37;100.00
49030;BME280;43337;52.070;4.508;2024-01-25T03:00:23;103077.44;;;5.39;100.00
49030;BME280;43337;52.070;4.508;2024-01-25T03:02:49;103050.28;;;5.28;100.00
49030;BME280;43337;52.070;4.508;2024-01-25T03:05:14;103046.63;;;5.19;100.00
49030;BME280;43337;52.070;4.508;2024-01-25T03:07:39;103019.44;;;5.04;100.00
49030;BME280;43337;52.070;4.508;2024-01-25T03:10:05;103022.00;;;5.03;100.00
49030;BME280;43337;52.070;4.508;2024-01-25T03:12:30;103068.50;;;5.25;100.00
49030;BME280;43337;52.070;4.508;2024-01-25T03:14:56;103074.59;;;5.24;100.00
49030;BME280;43337;52.070;4.508;2024-01-25T03:17:21;103068.47;;;5.24;100.00
49030;BME280;43337;52.070;4.508;2024-01-25T03:19:46;103049.03;;;5.05;100.00
49030;BME280;43337;52.070;4.508;2024-01-25T03:22:12;103078.88;;;5.21;100.00
49030;BME280;43337;52.070;4.508;2024-01-25T03:24:38;103081.47;;;5.19;100.00
49030;BME280;43337;52.070;4.508;2024-01-25T03:27:04;103067.50;;;5.17;100.00
49030;BME280;43337;52.070;4.508;2024-01-25T03:29:29;103054.34;;;5.11;100.00
49030;BME280;43337;52.070;4.508;2024-01-25T03:31:55;103056.94;;;5.08;100.00
49030;BME280;43337;52.070;4.508;2024-01-25T03:34:21;103060.34;;;5.04;100.00
49030;BME280;43337;52.070;4.508;2024-01-25T03:36:46;103067.25;;;5.02;100.00
49030;BME280;43337;52.070;4.508;2024-01-25T03:39:11;103018.03;;;4.72;100.00
49030;BME280;43337;52.070;4.508;2024-01-25T03:41:37;103062.78;;;4.95;100.00
49030;BME280;43337;52.070;4.508;2024-01-25T03:44:03;103046.00;;;4.80;100.00
49030;BME280;43337;52.070;4.508;2024-01-25T03:46:29;103052.16;;;4.84;100.00
49030;BME280;43337;52.070;4.508;2024-01-25T03:48:54;103048.59;;;4.80;100.00
49030;BME280;43337;52.070;4.508;2024-01-25T03:51:20;103037.13;;;4.69;100.00
49030;BME280;43337;52.070;4.508;2024-01-25T03:53:45;103061.66;;;4.80;100.00
49030;BME280;43337;52.070;4.508;2024-01-25T03:56:13;103060.72;;;4.75;100.00
49030;BME280;43337;52.070;4.508;2024-01-25T03:58:41;103050.19;;;4.71;100.00
49030;BME280;43337;52.070;4.508;2024-01-25T04:01:06;103053.59;;;4.67;100.00
49030;BME280;43337;52.070;4.508;2024-01-25T04:03:32;103057.03;;;4.64;100.00
49030;BME280;43337;52.070;4.508;2024-01-25T04:05:57;103055.22;;;4.60;100.00
49030;BME280;43337;52.070;4.508;2024-01-25T04:08:23;103046.44;;;4.55;100.00
49030;BME280;43337;52.070;4.508;2024-01-25T04:10:48;103061.34;;;4.62;100.00
49030;BME280;43337;52.070;4.508;2024-01-25T04:13:13;103034.00;;;4.40;100.00
49030;BME280;43337;52.070;4.508;2024-01-25T04:15:40;103072.53;;;4.55;100.00
49030;BME280;43337;52.070;4.508;2024-01-25T04:18:05;103067.31;;;4.55;100.00
49030;BME280;43337;52.070;4.508;2024-01-25T04:20:30;103044.44;;;4.41;100.00
49030;BME280;43337;52.070;4.508;2024-01-25T04:22:56;103052.38;;;4.46;100.00
49030;BME280;43337;52.070;4.508;2024-01-25T04:25:22;103053.19;;;4.44;100.00
49030;BME280;43337;52.070;4.508;2024-01-25T04:27:47;103054.94;;;4.43;100.00
49030;BME280;43337;52.070;4.508;2024-01-25T04:30:15;103058.34;;;4.40;100.00
49030;BME280;43337;52.070;4.508;2024-01-25T04:32:42;103059.06;;;4.33;100.00
49030;BME280;43337;52.070;4.508;2024-01-25T04:35:10;103059.94;;;4.32;100.00
49030;BME280;43337;52.070;4.508;2024-01-25T04:37:36;103074.78;;;4.36;100.00
49030;BME280;43337;52.070;4.508;2024-01-25T04:40:03;103053.75;;;4.27;100.00
49030;BME280;43337;52.070;4.508;2024-01-25T04:42:30;103062.56;;;4.34;100.00
49030;BME280;43337;52.070;4.508;2024-01-25T04:44:55;103019.59;;;4.15;100.00
49030;BME280;43337;52.070;4.508;2024-01-25T04:47:21;103033.69;;;4.23;100.00
49030;BME280;43337;52.070;4.508;2024-01-25T04:49:47;103046.81;;;4.29;100.00
49030;BME280;43337;52.070;4.508;2024-01-25T04:52:12;103039.84;;;4.27;100.00
49030;BME280;43337;52.070;4.508;2024-01-25T04:54:38;103054.69;;;4.31;100.00
49030;BME280;43337;52.070;4.508;2024-01-25T04:57:04;103051.16;;;4.27;100.00
49030;BME280;43337;52.070;4.508;2024-01-25T04:59:32;103051.97;;;4.26;100.00
49030;BME280;43337;52.070;4.508;2024-01-25T05:01:58;103060.78;;;4.31;100.00
49030;BME280;43337;52.070;4.508;2024-01-25T05:04:24;103042.34;;;4.22;100.00
49030;BME280;43337;52.070;4.508;2024-01-25T05:06:49;103037.84;;;4.13;100.00
49030;BME280;43337;52.070;4.508;2024-01-25T05:09:15;103071.22;;;4.33;100.00
49030;BME280;43337;52.070;4.508;2024-01-25T05:11:43;103079.03;;;4.31;100.00
49030;BME280;43337;52.070;4.508;2024-01-25T05:14:08;103080.66;;;4.26;100.00
49030;BME280;43337;52.070;4.508;2024-01-25T05:16:34;103090.28;;;4.29;100.00
49030;BME280;43337;52.070;4.508;2024-01-25T05:19:02;103098.91;;;4.26;100.00
49030;BME280;43337;52.070;4.508;2024-01-25T05:21:28;103106.69;;;4.23;100.00
49030;BME280;43337;52.070;4.508;2024-01-25T05:23:54;103117.00;;;4.19;100.00
49030;BME280;43337;52.070;4.508;2024-01-25T05:26:19;103109.94;;;4.11;100.00
49030;BME280;43337;52.070;4.508;2024-01-25T05:28:46;103106.31;;;4.06;100.00
49030;BME280;43337;52.070;4.508;2024-01-25T05:31:11;103108.16;;;4.10;100.00
49030;BME280;43337;52.070;4.508;2024-01-25T05:33:41;103095.00;;;4.04;100.00
49030;BME280;43337;52.070;4.508;2024-01-25T05:36:07;103099.38;;;4.05;100.00
49030;BME280;43337;52.070;4.508;2024-01-25T05:38:33;103099.28;;;4.02;100.00
49030;BME280;43337;52.070;4.508;2024-01-25T05:40:58;103095.78;;;4.00;100.00
49030;BME280;43337;52.070;4.508;2024-01-25T05:43:24;103054.25;;;3.68;100.00
49030;BME280;43337;52.070;4.508;2024-01-25T05:45:51;103070.03;;;3.75;100.00
49030;BME280;43337;52.070;4.508;2024-01-25T05:48:16;103085.16;;;3.91;100.00
49030;BME280;43337;52.070;4.508;2024-01-25T05:50:41;103075.41;;;3.82;100.00
49030;BME280;43337;52.070;4.508;2024-01-25T05:53:07;103088.53;;;3.87;100.00
49030;BME280;43337;52.070;4.508;2024-01-25T05:55:32;103094.53;;;3.83;100.00
49030;BME280;43337;52.070;4.508;2024-01-25T05:57:57;103102.34;;;3.83;100.00
49030;BME280;43337;52.070;4.508;2024-01-25T06:00:23;103107.53;;;3.81;100.00
49030;BME280;43337;52.070;4.508;2024-01-25T06:02:49;103102.25;;;3.78;100.00
49030;BME280;43337;52.070;4.508;2024-01-25T06:05:14;103110.97;;;3.80;100.00
49030;BME280;43337;52.070;4.508;2024-01-25T06:07:39;103079.31;;;3.62;100.00
49030;BME280;43337;52.070;4.508;2024-01-25T06:10:06;103082.81;;;3.64;100.00
49030;BME280;43337;52.070;4.508;2024-01-25T06:12:33;103100.53;;;3.79;100.00
49030;BME280;43337;52.070;4.508;2024-01-25T06:14:59;103104.72;;;3.72;100.00
49030;BME280;43337;52.070;4.508;2024-01-25T06:17:24;103061.53;;;3.44;100.00
49030;BME280;43337;52.070;4.508;2024-01-25T06:19:49;103096.69;;;3.63;100.00
49030;BME280;43337;52.070;4.508;2024-01-25T06:22:16;103109.91;;;3.71;100.00
49030;BME280;43337;52.070;4.508;2024-01-25T06:24:42;103120.31;;;3.71;100.00
49030;BME280;43337;52.070;4.508;2024-01-25T06:27:09;103108.88;;;3.64;100.00
49030;BME280;43337;52.070;4.508;2024-01-25T06:29:36;103074.72;;;3.50;100.00
49030;BME280;43337;52.070;4.508;2024-01-25T06:32:03;103074.66;;;3.49;100.00
49030;BME280;43337;52.070;4.508;2024-01-25T06:34:29;103108.00;;;3.63;100.00
49030;BME280;43337;52.070;4.508;2024-01-25T06:36:55;103104.44;;;3.60;100.00
49030;BME280;43337;52.070;4.508;2024-01-25T06:39:21;103044.53;;;3.21;100.00
49030;BME280;43337;52.070;4.508;2024-01-25T06:41:48;103087.59;;;3.46;100.00
49030;BME280;43337;52.070;4.508;2024-01-25T06:44:14;103070.81;;;3.31;100.00
49030;BME280;43337;52.070;4.508;2024-01-25T06:46:41;103079.78;;;3.44;100.00
49030;BME280;43337;52.070;4.508;2024-01-25T06:49:06;103098.19;;;3.53;100.00
49030;BME280;43337;52.070;4.508;2024-01-25T06:51:32;103067.53;;;3.40;100.00
49030;BME280;43337;52.070;4.508;2024-01-25T06:53:58;103096.44;;;3.52;100.00
49030;BME280;43337;52.070;4.508;2024-01-25T06:56:24;103087.66;;;3.47;100.00
49030;BME280;43337;52.070;4.508;2024-01-25T06:58:52;103065.53;;;3.30;100.00
49030;BME280;43337;52.070;4.508;2024-01-25T07:01:21;103112.94;;;3.53;100.00
49030;BME280;43337;52.070;4.508;2024-01-25T07:03:48;103108.53;;;3.49;100.00
49030;BME280;43337;52.070;4.508;2024-01-25T07:06:16;103121.63;;;3.53;100.00
49030;BME280;43337;52.070;4.508;2024-01-25T07:08:56;103114.78;;;3.57;100.00
49030;BME280;43337;52.070;4.508;2024-01-25T07:11:21;103106.97;;;3.57;100.00
49030;BME280;43337;52.070;4.508;2024-01-25T07:13:47;103080.66;;;3.45;100.00
49030;BME280;43337;52.070;4.508;2024-01-25T07:16:13;103102.75;;;3.62;100.00
49030;BME280;43337;52.070;4.508;2024-01-25T07:18:40;103108.16;;;3.71;100.00
49030;BME280;43337;52.070;4.508;2024-01-25T07:21:09;103085.25;;;3.56;100.00
49030;BME280;43337;52.070;4.508;2024-01-25T07:23:34;103092.44;;;3.66;100.00
49030;BME280;43337;52.070;4.508;2024-01-25T07:26:00;103083.75;;;3.66;100.00
49030;BME280;43337;52.070;4.508;2024-01-25T07:28:25;103116.44;;;3.91;100.00
49030;BME280;43337;52.070;4.508;2024-01-25T07:30:51;103123.56;;;4.00;100.00
49030;BME280;43337;52.070;4.508;2024-01-25T07:33:17;103119.28;;;4.02;100.00
49030;BME280;43337;52.070;4.508;2024-01-25T07:35:43;103115.88;;;4.06;100.00
49030;BME280;43337;52.070;4.508;2024-01-25T07:38:12;103117.78;;;4.13;100.00
49030;BME280;43337;52.070;4.508;2024-01-25T07:40:38;103106.31;;;4.06;100.00
49030;BME280;43337;52.070;4.508;2024-01-25T07:43:05;103112.41;;;4.05;100.00
49030;BME280;43337;52.070;4.508;2024-01-25T07:45:31;103115.81;;;4.03;100.00
49030;BME280;43337;52.070;4.508;2024-01-25T07:47:56;103099.91;;;3.89;100.00
49030;BME280;43337;52.070;4.508;2024-01-25T07:50:22;103140.25;;;4.08;100.00
49030;BME280;43337;52.070;4.508;2024-01-25T07:52:47;103122.91;;;4.08;100.00
49030;BME280;43337;52.070;4.508;2024-01-25T07:55:15;103093.03;;;3.92;100.00
49030;BME280;43337;52.070;4.508;2024-01-25T07:57:40;103116.03;;;4.13;100.00
49030;BME280;43337;52.070;4.508;2024-01-25T08:00:07;103073.16;;;3.99;100.00
49030;BME280;43337;52.070;4.508;2024-01-25T08:02:33;103082.13;;;4.12;100.00
49030;BME280;43337;52.070;4.508;2024-01-25T08:04:59;103059.06;;;3.89;100.00
49030;BME280;43337;52.070;4.508;2024-01-25T08:07:24;103091.78;;;4.18;100.00
49030;BME280;43337;52.070;4.508;2024-01-25T08:09:51;103091.06;;;4.23;100.00
49030;BME280;43337;52.070;4.508;2024-01-25T08:12:23;103101.59;;;4.29;100.00
49030;BME280;43337;52.070;4.508;2024-01-25T08:14:53;103091.22;;;4.32;100.00
49030;BME280;43337;52.070;4.508;2024-01-25T08:17:21;103093.81;;;4.31;100.00
49030;BME280;43337;52.070;4.508;2024-01-25T08:19:46;103104.34;;;4.37;100.00
49030;BME280;43337;52.070;4.508;2024-01-25T08:22:12;103108.75;;;4.39;100.00
49030;BME280;43337;52.070;4.508;2024-01-25T08:24:39;103108.81;;;4.43;100.00
49030;BME280;43337;52.070;4.508;2024-01-25T08:27:05;103121.09;;;4.48;100.00
49030;BME280;43337;52.070;4.508;2024-01-25T08:29:32;103112.31;;;4.45;100.00
49030;BME280;43337;52.070;4.508;2024-01-25T08:31:59;103120.28;;;4.51;100.00
49030;BME280;43337;52.070;4.508;2024-01-25T08:34:24;103111.69;;;4.56;100.00
49030;BME280;43337;52.070;4.508;2024-01-25T08:36:49;103115.22;;;4.60;100.00
49030;BME280;43337;52.070;4.508;2024-01-25T08:39:16;103110.94;;;4.63;100.00
49030;BME280;43337;52.070;4.508;2024-01-25T08:41:41;103123.13;;;4.64;100.00
49030;BME280;43337;52.070;4.508;2024-01-25T08:44:08;103122.38;;;4.70;100.00
49030;BME280;43337;52.070;4.508;2024-01-25T08:46:34;103059.28;;;4.44;100.00
49030;BME280;43337;52.070;4.508;2024-01-25T08:48:59;103114.66;;;4.76;100.00
49030;BME280;43337;52.070;4.508;2024-01-25T08:51:24;103102.44;;;4.74;100.00
49030;BME280;43337;52.070;4.508;2024-01-25T08:53:50;103121.81;;;4.86;100.00
49030;BME280;43337;52.070;4.508;2024-01-25T08:56:16;103113.22;;;4.92;100.00
49030;BME280;43337;52.070;4.508;2024-01-25T08:58:42;103106.34;;;4.99;100.00
49030;BME280;43337;52.070;4.508;2024-01-25T09:01:07;103068.66;;;4.81;100.00
49030;BME280;43337;52.070;4.508;2024-01-25T09:03:33;103117.00;;;5.11;100.00
49030;BME280;43337;52.070;4.508;2024-01-25T09:05:58;103094.47;;;5.16;100.00
49030;BME280;43337;52.070;4.508;2024-01-25T09:08:30;103091.94;;;5.21;100.00
49030;BME280;43337;52.070;4.508;2024-01-25T09:10:55;103085.91;;;5.26;100.00
49030;BME280;43337;52.070;4.508;2024-01-25T09:13:21;103083.41;;;5.32;100.00
49030;BME280;43337;52.070;4.508;2024-01-25T09:15:46;103091.34;;;5.38;100.00
49030;BME280;43337;52.070;4.508;2024-01-25T09:18:12;103035.28;;;5.15;100.00
49030;BME280;43337;52.070;4.508;2024-01-25T09:20:37;103078.31;;;5.40;100.00
49030;BME280;43337;52.070;4.508;2024-01-25T09:23:02;103077.50;;;5.44;100.00
49030;BME280;43337;52.070;4.508;2024-01-25T09:25:28;103075.00;;;5.52;100.00
49030;BME280;43337;52.070;4.508;2024-01-25T09:27:53;103079.41;;;5.56;100.00
49030;BME280;43337;52.070;4.508;2024-01-25T09:30:19;103077.63;;;5.53;100.00
49030;BME280;43337;52.070;4.508;2024-01-25T09:32:44;103072.38;;;5.50;100.00
49030;BME280;43337;52.070;4.508;2024-01-25T09:35:10;103046.94;;;5.38;100.00
49030;BME280;43337;52.070;4.508;2024-01-25T09:37:35;103085.66;;;5.67;100.00
49030;BME280;43337;52.070;4.508;2024-01-25T09:40:01;103041.84;;;5.48;100.00
49030;BME280;43337;52.070;4.508;2024-01-25T09:42:29;103084.78;;;5.67;100.00
49030;BME280;43337;52.070;4.508;2024-01-25T09:44:54;103051.53;;;5.56;100.00
49030;BME280;43337;52.070;4.508;2024-01-25T09:47:23;103061.28;;;5.67;100.00
49030;BME280;43337;52.070;4.508;2024-01-25T09:49:49;103087.63;;;5.83;100.00
49030;BME280;43337;52.070;4.508;2024-01-25T09:52:16;103076.34;;;5.86;100.00
49030;BME280;43337;52.070;4.508;2024-01-25T09:54:41;103084.25;;;5.91;100.00
49030;BME280;43337;52.070;4.508;2024-01-25T09:57:16;103067.59;;;5.84;100.00
49030;BME280;43337;52.070;4.508;2024-01-25T09:59:47;103076.53;;;5.97;100.00
49030;BME280;43337;52.070;4.508;2024-01-25T10:02:15;103078.28;;;5.99;100.00
49030;BME280;43337;52.070;4.508;2024-01-25T10:04:41;103092.25;;;6.03;100.00
49030;BME280;43337;52.070;4.508;2024-01-25T10:07:06;103077.41;;;5.99;100.00
49030;BME280;43337;52.070;4.508;2024-01-25T10:09:41;103083.59;;;6.07;100.00
49030;BME280;43337;52.070;4.508;2024-01-25T10:12:07;103074.94;;;6.09;100.00
49030;BME280;43337;52.070;4.508;2024-01-25T10:14:33;103027.44;;;5.77;100.00
49030;BME280;43337;52.070;4.508;2024-01-25T10:16:58;103076.72;;;6.12;100.00
49030;BME280;43337;52.070;4.508;2024-01-25T10:19:25;103074.09;;;6.12;100.00
49030;BME280;43337;52.070;4.508;2024-01-25T10:21:51;103042.56;;;6.00;100.00
49030;BME280;43337;52.070;4.508;2024-01-25T10:24:17;103074.19;;;6.20;100.00
49030;BME280;43337;52.070;4.508;2024-01-25T10:26:42;103067.22;;;6.22;100.00
49030;BME280;43337;52.070;4.508;2024-01-25T10:29:08;103073.41;;;6.28;100.00
49030;BME280;43337;52.070;4.508;2024-01-25T10:31:38;103075.97;;;6.25;100.00
49030;BME280;43337;52.070;4.508;2024-01-25T10:34:08;103091.81;;;6.36;100.00
49030;BME280;43337;52.070;4.508;2024-01-25T10:36:38;103077.81;;;6.31;100.00
49030;BME280;43337;52.070;4.508;2024-01-25T10:39:07;103081.34;;;6.36;100.00
49030;BME280;43337;52.070;4.508;2024-01-25T10:41:34;103070.88;;;6.34;100.00
49030;BME280;43337;52.070;4.508;2024-01-25T10:44:00;103084.03;;;6.42;100.00
49030;BME280;43337;52.070;4.508;2024-01-25T10:46:28;103079.69;;;6.44;100.00
49030;BME280;43337;52.070;4.508;2024-01-25T10:48:57;103070.09;;;6.43;100.00
49030;BME280;43337;52.070;4.508;2024-01-25T10:51:23;103050.84;;;6.40;100.00
49030;BME280;43337;52.070;4.508;2024-01-25T10:53:48;103042.22;;;6.47;100.00
49030;BME280;43337;52.070;4.508;2024-01-25T10:56:14;103043.03;;;6.43;100.00
49030;BME280;43337;52.070;4.508;2024-01-25T10:58:44;103043.09;;;6.49;100.00
49030;BME280;43337;52.070;4.508;2024-01-25T11:01:10;103037.00;;;6.50;100.00
49030;BME280;43337;52.070;4.508;2024-01-25T11:03:36;103044.88;;;6.50;100.00
49030;BME280;43337;52.070;4.508;2024-01-25T11:06:08;103040.50;;;6.50;100.00
49030;BME280;43337;52.070;4.508;2024-01-25T11:08:35;103038.75;;;6.51;100.00
49030;BME280;43337;52.070;4.508;2024-01-25T11:11:03;103032.66;;;6.50;100.00
49030;BME280;43337;52.070;4.508;2024-01-25T11:13:31;103037.00;;;6.50;100.00
49030;BME280;43337;52.070;4.508;2024-01-25T11:15:57;103034.41;;;6.51;100.00
49030;BME280;43337;52.070;4.508;2024-01-25T11:18:25;103032.63;;;6.49;100.00
49030;BME280;43337;52.070;4.508;2024-01-25T11:20:51;103037.06;;;6.54;100.00
49030;BME280;43337;52.070;4.508;2024-01-25T11:23:16;103041.50;;;6.62;100.00
49030;BME280;43337;52.070;4.508;2024-01-25T11:25:45;103002.94;;;6.42;100.00
49030;BME280;43337;52.070;4.508;2024-01-25T11:28:13;103004.75;;;6.52;100.00
49030;BME280;43337;52.070;4.508;2024-01-25T11:30:40;103002.22;;;6.65;100.00
49030;BME280;43337;52.070;4.508;2024-01-25T11:33:07;103010.19;;;6.75;100.00
49030;BME280;43337;52.070;4.508;2024-01-25T11:35:33;102998.03;;;6.80;100.00
49030;BME280;43337;52.070;4.508;2024-01-25T11:37:58;103008.53;;;6.85;100.00
49030;BME280;43337;52.070;4.508;2024-01-25T11:40:25;102997.19;;;6.84;100.00
49030;BME280;43337;52.070;4.508;2024-01-25T11:42:54;102974.53;;;6.90;100.00
49030;BME280;43337;52.070;4.508;2024-01-25T11:45:20;102978.97;;;7.01;100.00
49030;BME280;43337;52.070;4.508;2024-01-25T11:47:49;102967.63;;;7.05;100.00
49030;BME280;43337;52.070;4.508;2024-01-25T11:50:14;102948.41;;;7.02;100.00
49030;BME280;43337;52.070;4.508;2024-01-25T11:52:41;102973.84;;;7.21;100.00
49030;BME280;43337;52.070;4.508;2024-01-25T11:55:08;102954.63;;;7.21;100.00
49030;BME280;43337;52.070;4.508;2024-01-25T11:57:39;102960.81;;;7.33;100.00
49030;BME280;43337;52.070;4.508;2024-01-25T12:00:07;102959.97;;;7.41;100.00
49030;BME280;43337;52.070;4.508;2024-01-25T12:02:36;102913.66;;;7.35;100.00
49030;BME280;43337;52.070;4.508;2024-01-25T12:05:02;102935.56;;;7.48;100.00
49030;BME280;43337;52.070;4.508;2024-01-25T12:07:30;102918.06;;;7.45;100.00
49030;BME280;43337;52.070;4.508;2024-01-25T12:10:06;102917.25;;;7.60;100.00
49030;BME280;43337;52.070;4.508;2024-01-25T12:12:33;102921.63;;;7.67;100.00
49030;BME280;43337;52.070;4.508;2024-01-25T12:15:07;102914.63;;;7.65;100.00
49030;BME280;43337;52.070;4.508;2024-01-25T12:17:34;102917.28;;;7.69;100.00
49030;BME280;43337;52.070;4.508;2024-01-25T12:20:05;102912.91;;;7.68;100.00
49030;BME280;43337;52.070;4.508;2024-01-25T12:22:36;102905.03;;;7.64;100.00
49030;BME280;43337;52.070;4.508;2024-01-25T12:25:02;102883.16;;;7.54;100.00
49030;BME280;43337;52.070;4.508;2024-01-25T12:27:29;102904.19;;;7.69;100.00
49030;BME280;43337;52.070;4.508;2024-01-25T12:29:56;102890.19;;;7.63;100.00
49030;BME280;43337;52.070;4.508;2024-01-25T12:32:22;102878.81;;;7.68;100.00
49030;BME280;43337;52.070;4.508;2024-01-25T12:34:54;102873.59;;;7.65;100.00
49030;BME280;43337;52.070;4.508;2024-01-25T12:37:20;102877.06;;;7.72;100.00
49030;BME280;43337;52.070;4.508;2024-01-25T12:39:46;102870.97;;;7.76;100.00
49030;BME280;43337;52.070;4.508;2024-01-25T12:42:11;102830.75;;;7.54;100.00
49030;BME280;43337;52.070;4.508;2024-01-25T12:44:36;102858.75;;;7.82;100.00